sensor_id;sensor_type;location;lat;lon;timestamp;pressure;altitude;pressure_sealevel;temperature;humidity
46942;BME280;32676;52.630;4.896;2022-09-17T00:02:02;99356.03;;;12.51;72.20
46942;BME280;32676;52.630;4.896;2022-09-17T00:04:31;99339.91;;;12.43;71.88
46942;BME280;32676;52.630;4.896;2022-09-17T00:06:58;99357.84;;;12.51;71.52
46942;BME280;32676;52.630;4.896;2022-09-17T00:09:25;99311.22;;;12.24;70.75
46942;BME280;32676;52.630;4.896;2022-09-17T00:11:51;99347.41;;;12.49;70.50
46942;BME280;32676;52.630;4.896;2022-09-17T00:14:18;99340.63;;;12.45;69.55
46942;BME280;32676;52.630;4.896;2022-09-17T00:16:46;99325.03;;;12.42;69.16
46942;BME280;32676;52.630;4.896;2022-09-17T00:19:16;99306.03;;;12.37;69.34
46942;BME280;32676;52.630;4.896;2022-09-17T00:21:43;99294.00;;;12.33;68.63
46942;BME280;32676;52.630;4.896;2022-09-17T00:24:11;99271.44;;;12.28;68.08
46942;BME280;32676;52.630;4.896;2022-09-17T00:26:38;99266.56;;;12.22;67.90
46942;BME280;32676;52.630;4.896;2022-09-17T00:29:05;99222.78;;;12.07;67.88
46942;BME280;32676;52.630;4.896;2022-09-17T00:31:33;99221.88;;;12.08;67.77
46942;BME280;32676;52.630;4.896;2022-09-17T00:34:01;99212.81;;;12.12;67.48
46942;BME280;32676;52.630;4.896;2022-09-17T00:36:29;99205.09;;;12.09;67.71
46942;BME280;32676;52.630;4.896;2022-09-17T00:38:57;99180.13;;;12.02;67.63
46942;BME280;32676;52.630;4.896;2022-09-17T00:41:26;99167.06;;;12.00;67.48
46942;BME280;32676;52.630;4.896;2022-09-17T00:43:55;99156.75;;;11.97;68.03
46942;BME280;32676;52.630;4.896;2022-09-17T00:46:30;99148.94;;;11.96;68.27
46942;BME280;32676;52.630;4.896;2022-09-17T00:49:02;99137.84;;;11.90;68.36
46942;BME280;32676;52.630;4.896;2022-09-17T00:51:33;99138.59;;;11.93;68.66
46942;BME280;32676;52.630;4.896;2022-09-17T00:54:03;99126.75;;;11.85;68.63
46942;BME280;32676;52.630;4.896;2022-09-17T00:56:33;99131.81;;;11.88;68.75
46942;BME280;32676;52.630;4.896;2022-09-17T00:59:01;99142.06;;;11.93;68.60
46942;BME280;32676;52.630;4.896;2022-09-17T01:01:28;99154.22;;;11.96;68.53
46942;BME280;32676;52.630;4.896;2022-09-17T01:03:55;99154.41;;;11.93;68.74
46942;BME280;32676;52.630;4.896;2022-09-17T01:06:29;99152.50;;;11.95;68.81
46942;BME280;32676;52.630;4.896;2022-09-17T01:09:33;99141.22;;;11.93;68.70
46942;BME280;32676;52.630;4.896;2022-09-17T01:12:16;99140.50;;;11.90;68.38
46942;BME280;32676;52.630;4.896;2022-09-17T01:14:53;99127.50;;;11.87;67.80
46942;BME280;32676;52.630;4.896;2022-09-17T01:17:28;99107.44;;;11.72;67.73
46942;BME280;32676;52.630;4.896;2022-09-17T01:20:29;99113.69;;;11.84;67.41
46942;BME280;32676;52.630;4.896;2022-09-17T01:23:25;99109.47;;;11.81;67.59
46942;BME280;32676;52.630;4.896;2022-09-17T01:26:07;99091.56;;;11.74;67.53
46942;BME280;32676;52.630;4.896;2022-09-17T01:28:40;99060.16;;;11.58;67.71
46942;BME280;32676;52.630;4.896;2022-09-17T01:31:28;99090.50;;;11.76;67.97
46942;BME280;32676;52.630;4.896;2022-09-17T01:34:04;99105.25;;;11.79;68.18
46942;BME280;32676;52.630;4.896;2022-09-17T01:36:48;99106.09;;;11.79;68.31
46942;BME280;32676;52.630;4.896;2022-09-17T01:39:28;99118.13;;;11.83;68.33
46942;BME280;32676;52.630;4.896;2022-09-17T01:42:03;99138.97;;;11.86;68.56
46942;BME280;32676;52.630;4.896;2022-09-17T01:44:36;99158.91;;;11.90;68.33
46942;BME280;32676;52.630;4.896;2022-09-17T01:47:10;99171.88;;;11.94;68.47
46942;BME280;32676;52.630;4.896;2022-09-17T01:49:39;99180.72;;;11.93;68.39
46942;BME280;32676;52.630;4.896;2022-09-17T01:52:07;99196.09;;;11.99;68.46
46942;BME280;32676;52.630;4.896;2022-09-17T01:54:38;99190.31;;;11.94;68.43
46942;BME280;32676;52.630;4.896;2022-09-17T01:57:08;99196.31;;;11.96;68.84
46942;BME280;32676;52.630;4.896;2022-09-17T01:59:40;99184.47;;;11.88;69.18
46942;BME280;32676;52.630;4.896;2022-09-17T02:02:13;99204.88;;;11.99;68.93
46942;BME280;32676;52.630;4.896;2022-09-17T02:04:43;99208.34;;;12.00;68.92
46942;BME280;32676;52.630;4.896;2022-09-17T02:07:16;99222.25;;;12.02;68.68
46942;BME280;32676;52.630;4.896;2022-09-17T02:09:48;99242.16;;;12.06;68.31
46942;BME280;32676;52.630;4.896;2022-09-17T02:12:22;99248.38;;;12.05;67.51
46942;BME280;32676;52.630;4.896;2022-09-17T02:14:55;99261.34;;;12.08;66.12
46942;BME280;32676;52.630;4.896;2022-09-17T02:17:30;99262.94;;;12.10;65.09
46942;BME280;32676;52.630;4.896;2022-09-17T02:19:58;99268.13;;;12.12;64.23
46942;BME280;32676;52.630;4.896;2022-09-17T02:22:30;99270.94;;;12.09;62.64
46942;BME280;32676;52.630;4.896;2022-09-17T02:25:02;99284.47;;;12.17;60.93
46942;BME280;32676;52.630;4.896;2022-09-17T02:27:38;99274.53;;;12.08;59.73
46942;BME280;32676;52.630;4.896;2022-09-17T02:30:10;99285.50;;;12.15;58.90
46942;BME280;32676;52.630;4.896;2022-09-17T02:32:38;99289.72;;;12.17;59.13
46942;BME280;32676;52.630;4.896;2022-09-17T02:35:07;99280.31;;;12.13;59.22
46942;BME280;32676;52.630;4.896;2022-09-17T02:37:35;99270.75;;;12.12;59.66
46942;BME280;32676;52.630;4.896;2022-09-17T02:40:02;99242.22;;;11.92;60.65
46942;BME280;32676;52.630;4.896;2022-09-17T02:42:34;99262.09;;;12.10;61.54
46942;BME280;32676;52.630;4.896;2022-09-17T02:45:11;99250.66;;;11.97;62.37
46942;BME280;32676;52.630;4.896;2022-09-17T02:47:57;99259.66;;;12.07;62.66
46942;BME280;32676;52.630;4.896;2022-09-17T02:50:36;99263.03;;;12.09;63.35
46942;BME280;32676;52.630;4.896;2022-09-17T02:53:18;99246.44;;;11.94;63.51
46942;BME280;32676;52.630;4.896;2022-09-17T02:55:53;99279.56;;;12.11;64.00
46942;BME280;32676;52.630;4.896;2022-09-17T02:58:27;99273.22;;;12.01;64.15
46942;BME280;32676;52.630;4.896;2022-09-17T03:00:59;99289.91;;;12.14;64.50
46942;BME280;32676;52.630;4.896;2022-09-17T03:03:33;99281.78;;;12.04;65.15
46942;BME280;32676;52.630;4.896;2022-09-17T03:06:03;99322.06;;;12.19;65.45
46942;BME280;32676;52.630;4.896;2022-09-17T03:08:33;99303.81;;;12.16;66.90
46942;BME280;32676;52.630;4.896;2022-09-17T03:11:00;99270.94;;;12.09;68.02
46942;BME280;32676;52.630;4.896;2022-09-17T03:13:28;99255.53;;;12.03;69.14
46942;BME280;32676;52.630;4.896;2022-09-17T03:15:55;99232.22;;;11.97;69.30
46942;BME280;32676;52.630;4.896;2022-09-17T03:18:22;99190.31;;;11.79;69.45
46942;BME280;32676;52.630;4.896;2022-09-17T03:20:49;99189.91;;;11.85;69.86
46942;BME280;32676;52.630;4.896;2022-09-17T03:23:16;99173.47;;;11.82;69.59
46942;BME280;32676;52.630;4.896;2022-09-17T03:25:43;99162.31;;;11.78;69.50
46942;BME280;32676;52.630;4.896;2022-09-17T03:28:10;99153.66;;;11.76;69.43
46942;BME280;32676;52.630;4.896;2022-09-17T03:30:37;99145.13;;;11.72;69.83
46942;BME280;32676;52.630;4.896;2022-09-17T03:33:03;99116.69;;;11.65;69.64
46942;BME280;32676;52.630;4.896;2022-09-17T03:35:30;99120.78;;;11.69;69.64
46942;BME280;32676;52.630;4.896;2022-09-17T03:37:58;99131.31;;;11.69;69.68
46942;BME280;32676;52.630;4.896;2022-09-17T03:40:24;99134.03;;;11.67;69.97
46942;BME280;32676;52.630;4.896;2022-09-17T03:42:53;99119.31;;;11.65;70.65
46942;BME280;32676;52.630;4.896;2022-09-17T03:45:20;99096.78;;;11.61;71.18
46942;BME280;32676;52.630;4.896;2022-09-17T03:47:46;99078.84;;;11.53;71.14
46942;BME280;32676;52.630;4.896;2022-09-17T03:50:13;99073.59;;;11.53;70.73
46942;BME280;32676;52.630;4.896;2022-09-17T03:52:41;99057.75;;;11.40;70.25
46942;BME280;32676;52.630;4.896;2022-09-17T03:55:09;99062.41;;;11.49;70.07
46942;BME280;32676;52.630;4.896;2022-09-17T03:57:36;99038.59;;;11.38;69.96
46942;BME280;32676;52.630;4.896;2022-09-17T04:00:04;99040.94;;;11.43;69.81
46942;BME280;32676;52.630;4.896;2022-09-17T04:02:33;99032.31;;;11.41;70.18
46942;BME280;32676;52.630;4.896;2022-09-17T04:05:00;98980.66;;;11.12;70.04
46942;BME280;32676;52.630;4.896;2022-09-17T04:07:26;99028.06;;;11.38;70.35
46942;BME280;32676;52.630;4.896;2022-09-17T04:09:53;99021.16;;;11.37;70.50
46942;BME280;32676;52.630;4.896;2022-09-17T04:12:20;99018.63;;;11.36;70.51
46942;BME280;32676;52.630;4.896;2022-09-17T04:14:47;99016.06;;;11.34;70.73
46942;BME280;32676;52.630;4.896;2022-09-17T04:17:14;99016.91;;;11.34;70.46
46942;BME280;32676;52.630;4.896;2022-09-17T04:19:42;99015.25;;;11.33;70.70
46942;BME280;32676;52.630;4.896;2022-09-17T04:22:08;99015.44;;;11.30;70.69
46942;BME280;32676;52.630;4.896;2022-09-17T04:24:35;99025.66;;;11.35;70.61
46942;BME280;32676;52.630;4.896;2022-09-17T04:27:01;99019.00;;;11.29;70.15
46942;BME280;32676;52.630;4.896;2022-09-17T04:29:29;99045.56;;;11.39;69.51
46942;BME280;32676;52.630;4.896;2022-09-17T04:31:56;99044.59;;;11.40;68.94
46942;BME280;32676;52.630;4.896;2022-09-17T04:34:22;99066.38;;;11.42;68.33
46942;BME280;32676;52.630;4.896;2022-09-17T04:36:49;99051.41;;;11.30;67.79
46942;BME280;32676;52.630;4.896;2022-09-17T04:39:15;99082.63;;;11.49;67.00
46942;BME280;32676;52.630;4.896;2022-09-17T04:41:42;99105.28;;;11.51;66.45
46942;BME280;32676;52.630;4.896;2022-09-17T04:44:09;99113.16;;;11.51;66.43
46942;BME280;32676;52.630;4.896;2022-09-17T04:46:36;99118.44;;;11.51;66.33
46942;BME280;32676;52.630;4.896;2022-09-17T04:49:03;99150.25;;;11.61;66.27
46942;BME280;32676;52.630;4.896;2022-09-17T04:51:30;99166.69;;;11.65;66.43
46942;BME280;32676;52.630;4.896;2022-09-17T04:53:56;99163.09;;;11.66;66.14
46942;BME280;32676;52.630;4.896;2022-09-17T04:56:23;99175.22;;;11.68;66.76
46942;BME280;32676;52.630;4.896;2022-09-17T04:58:49;99164.78;;;11.67;67.45
46942;BME280;32676;52.630;4.896;2022-09-17T05:01:16;99146.22;;;11.56;68.76
46942;BME280;32676;52.630;4.896;2022-09-17T05:03:45;99140.94;;;11.56;69.24
46942;BME280;32676;52.630;4.896;2022-09-17T05:06:11;99138.31;;;11.56;69.96
46942;BME280;32676;52.630;4.896;2022-09-17T05:08:38;99125.44;;;11.51;70.55
46942;BME280;32676;52.630;4.896;2022-09-17T05:11:05;99135.69;;;11.56;70.84
46942;BME280;32676;52.630;4.896;2022-09-17T05:13:31;99119.34;;;11.50;71.29
46942;BME280;32676;52.630;4.896;2022-09-17T05:15:57;99099.63;;;11.43;71.48
46942;BME280;32676;52.630;4.896;2022-09-17T05:18:24;99076.75;;;11.31;71.67
46942;BME280;32676;52.630;4.896;2022-09-17T05:20:52;99096.09;;;11.44;71.48
46942;BME280;32676;52.630;4.896;2022-09-17T05:23:19;99068.47;;;11.37;71.31
46942;BME280;32676;52.630;4.896;2022-09-17T05:25:46;99085.75;;;11.41;71.46
46942;BME280;32676;52.630;4.896;2022-09-17T05:28:12;99063.41;;;11.34;71.52
46942;BME280;32676;52.630;4.896;2022-09-17T05:30:39;99055.63;;;11.32;72.09
46942;BME280;32676;52.630;4.896;2022-09-17T05:33:05;99044.44;;;11.29;72.78
46942;BME280;32676;52.630;4.896;2022-09-17T05:35:33;99035.00;;;11.26;73.35
46942;BME280;32676;52.630;4.896;2022-09-17T05:38:02;99035.00;;;11.26;73.44
46942;BME280;32676;52.630;4.896;2022-09-17T05:40:30;99013.69;;;11.17;73.69
46942;BME280;32676;52.630;4.896;2022-09-17T05:42:58;99018.94;;;11.17;74.00
46942;BME280;32676;52.630;4.896;2022-09-17T05:45:25;99048.03;;;11.28;73.83
46942;BME280;32676;52.630;4.896;2022-09-17T05:47:55;99049.72;;;11.29;74.70
46942;BME280;32676;52.630;4.896;2022-09-17T05:50:23;99056.66;;;11.30;74.72
46942;BME280;32676;52.630;4.896;2022-09-17T05:52:50;99059.22;;;11.31;74.42
46942;BME280;32676;52.630;4.896;2022-09-17T05:55:19;99079.19;;;11.34;74.00
46942;BME280;32676;52.630;4.896;2022-09-17T05:57:46;99105.97;;;11.41;73.63
46942;BME280;32676;52.630;4.896;2022-09-17T06:00:13;99134.47;;;11.47;72.80
46942;BME280;32676;52.630;4.896;2022-09-17T06:02:40;99147.72;;;11.45;72.41
46942;BME280;32676;52.630;4.896;2022-09-17T06:05:07;99190.94;;;11.56;71.85
46942;BME280;32676;52.630;4.896;2022-09-17T06:07:34;99212.63;;;11.59;71.32
46942;BME280;32676;52.630;4.896;2022-09-17T06:10:02;99248.59;;;11.73;71.57
46942;BME280;32676;52.630;4.896;2022-09-17T06:12:31;99245.41;;;11.68;71.60
46942;BME280;32676;52.630;4.896;2022-09-17T06:14:59;99283.19;;;11.81;71.55
46942;BME280;32676;52.630;4.896;2022-09-17T06:17:26;99307.44;;;11.86;71.67
46942;BME280;32676;52.630;4.896;2022-09-17T06:19:52;99326.44;;;11.92;71.87
46942;BME280;32676;52.630;4.896;2022-09-17T06:22:19;99349.00;;;11.96;71.67
46942;BME280;32676;52.630;4.896;2022-09-17T06:24:45;99375.78;;;12.02;72.00
46942;BME280;32676;52.630;4.896;2022-09-17T06:27:12;99400.25;;;12.04;71.58
46942;BME280;32676;52.630;4.896;2022-09-17T06:29:40;99446.78;;;12.18;70.78
46942;BME280;32676;52.630;4.896;2022-09-17T06:32:07;99460.59;;;12.22;69.86
46942;BME280;32676;52.630;4.896;2022-09-17T06:34:35;99487.59;;;12.25;68.69
46942;BME280;32676;52.630;4.896;2022-09-17T06:37:02;99484.03;;;12.26;68.88
46942;BME280;32676;52.630;4.896;2022-09-17T06:39:29;99480.66;;;12.24;68.66
46942;BME280;32676;52.630;4.896;2022-09-17T06:41:55;99477.06;;;12.25;68.26
46942;BME280;32676;52.630;4.896;2022-09-17T06:44:22;99480.94;;;12.20;67.95
46942;BME280;32676;52.630;4.896;2022-09-17T06:46:50;99467.94;;;12.17;68.00
46942;BME280;32676;52.630;4.896;2022-09-17T06:49:16;99468.59;;;12.20;68.63
46942;BME280;32676;52.630;4.896;2022-09-17T06:51:43;99415.75;;;12.09;69.40
46942;BME280;32676;52.630;4.896;2022-09-17T06:54:10;99376.06;;;11.98;70.47
46942;BME280;32676;52.630;4.896;2022-09-17T06:56:40;99342.34;;;11.90;71.11
46942;BME280;32676;52.630;4.896;2022-09-17T06:59:07;99302.75;;;11.77;71.48
46942;BME280;32676;52.630;4.896;2022-09-17T07:01:34;99290.50;;;11.76;71.85
46942;BME280;32676;52.630;4.896;2022-09-17T07:04:02;99282.25;;;11.68;72.57
46942;BME280;32676;52.630;4.896;2022-09-17T07:06:28;99304.81;;;11.72;72.72
46942;BME280;32676;52.630;4.896;2022-09-17T07:08:55;99349.34;;;11.89;73.01
46942;BME280;32676;52.630;4.896;2022-09-17T07:11:21;99387.53;;;11.97;73.32
46942;BME280;32676;52.630;4.896;2022-09-17T07:13:48;99414.44;;;12.02;73.83
46942;BME280;32676;52.630;4.896;2022-09-17T07:16:14;99424.97;;;12.02;74.13
46942;BME280;32676;52.630;4.896;2022-09-17T07:18:43;99419.78;;;12.00;74.26
46942;BME280;32676;52.630;4.896;2022-09-17T07:21:11;99403.16;;;12.00;74.52
46942;BME280;32676;52.630;4.896;2022-09-17T07:23:38;99360.25;;;11.83;75.60
46942;BME280;32676;52.630;4.896;2022-09-17T07:26:06;99323.59;;;11.80;76.21
46942;BME280;32676;52.630;4.896;2022-09-17T07:28:33;99280.38;;;11.70;76.54
46942;BME280;32676;52.630;4.896;2022-09-17T07:31:02;99247.66;;;11.60;76.28
46942;BME280;32676;52.630;4.896;2022-09-17T07:33:30;99212.25;;;11.51;75.86
46942;BME280;32676;52.630;4.896;2022-09-17T07:35:58;99177.72;;;11.43;75.89
46942;BME280;32676;52.630;4.896;2022-09-17T07:38:27;99135.91;;;11.24;76.13
46942;BME280;32676;52.630;4.896;2022-09-17T07:40:59;99139.69;;;11.20;76.20
46942;BME280;32676;52.630;4.896;2022-09-17T07:43:27;99182.97;;;11.43;76.48
46942;BME280;32676;52.630;4.896;2022-09-17T07:45:56;99219.31;;;11.50;76.56
46942;BME280;32676;52.630;4.896;2022-09-17T07:48:23;99266.00;;;11.61;76.57
46942;BME280;32676;52.630;4.896;2022-09-17T07:50:50;99306.88;;;11.67;76.71
46942;BME280;32676;52.630;4.896;2022-09-17T07:53:17;99373.22;;;11.86;76.60
46942;BME280;32676;52.630;4.896;2022-09-17T07:55:51;99431.19;;;12.01;75.86
46942;BME280;32676;52.630;4.896;2022-09-17T07:58:18;99497.94;;;12.14;75.39
46942;BME280;32676;52.630;4.896;2022-09-17T08:00:45;99568.13;;;12.29;74.48
46942;BME280;32676;52.630;4.896;2022-09-17T08:03:12;99626.03;;;12.45;74.26
46942;BME280;32676;52.630;4.896;2022-09-17T08:05:38;99682.59;;;12.54;73.56
46942;BME280;32676;52.630;4.896;2022-09-17T08:08:05;99763.97;;;12.75;72.96
46942;BME280;32676;52.630;4.896;2022-09-17T08:10:31;99838.25;;;12.97;72.84
46942;BME280;32676;52.630;4.896;2022-09-17T08:12:59;99925.06;;;13.16;72.67
46942;BME280;32676;52.630;4.896;2022-09-17T08:15:25;100015.53;;;13.34;71.07
46942;BME280;32676;52.630;4.896;2022-09-17T08:17:53;100127.28;;;13.65;69.71
46942;BME280;32676;52.630;4.896;2022-09-17T08:20:19;100178.66;;;13.75;69.15
46942;BME280;32676;52.630;4.896;2022-09-17T08:22:48;100148.34;;;13.67;68.61
46942;BME280;32676;52.630;4.896;2022-09-17T08:25:15;100117.78;;;13.62;69.07
46942;BME280;32676;52.630;4.896;2022-09-17T08:27:41;100058.75;;;13.48;69.46
46942;BME280;32676;52.630;4.896;2022-09-17T08:30:10;100027.59;;;13.38;69.93
46942;BME280;32676;52.630;4.896;2022-09-17T08:32:37;99977.56;;;13.21;70.19
46942;BME280;32676;52.630;4.896;2022-09-17T08:35:04;99967.94;;;13.20;70.33
46942;BME280;32676;52.630;4.896;2022-09-17T08:37:31;99959.88;;;13.23;70.31
46942;BME280;32676;52.630;4.896;2022-09-17T08:39:58;99968.53;;;13.25;70.80
46942;BME280;32676;52.630;4.896;2022-09-17T08:42:29;100012.06;;;13.34;71.08
46942;BME280;32676;52.630;4.896;2022-09-17T08:44:58;100064.03;;;13.48;71.04
46942;BME280;32676;52.630;4.896;2022-09-17T08:47:32;100029.31;;;13.39;71.24
46942;BME280;32676;52.630;4.896;2022-09-17T08:50:02;99881.13;;;13.01;71.99
46942;BME280;32676;52.630;4.896;2022-09-17T08:52:45;99726.28;;;12.58;72.05
46942;BME280;32676;52.630;4.896;2022-09-17T08:55:22;99644.75;;;12.41;72.42
46942;BME280;32676;52.630;4.896;2022-09-17T08:58:18;99563.22;;;12.23;73.31
46942;BME280;32676;52.630;4.896;2022-09-17T09:00:52;99507.81;;;12.10;74.21
46942;BME280;32676;52.630;4.896;2022-09-17T09:03:28;99509.63;;;12.10;75.21
46942;BME280;32676;52.630;4.896;2022-09-17T09:06:00;99539.16;;;12.15;76.60
46942;BME280;32676;52.630;4.896;2022-09-17T09:08:30;99570.22;;;12.24;77.42
46942;BME280;32676;52.630;4.896;2022-09-17T09:11:01;99613.69;;;12.32;77.77
46942;BME280;32676;52.630;4.896;2022-09-17T09:13:33;99693.13;;;12.54;78.05
46942;BME280;32676;52.630;4.896;2022-09-17T09:16:02;99779.03;;;12.73;77.02
46942;BME280;32676;52.630;4.896;2022-09-17T09:18:36;99845.75;;;12.89;76.64
46942;BME280;32676;52.630;4.896;2022-09-17T09:21:17;99971.53;;;13.19;75.60
46942;BME280;32676;52.630;4.896;2022-09-17T09:23:52;100065.22;;;13.42;75.65
46942;BME280;32676;52.630;4.896;2022-09-17T09:26:22;100107.47;;;13.42;75.52
46942;BME280;32676;52.630;4.896;2022-09-17T09:29:09;100116.81;;;13.48;76.04
46942;BME280;32676;52.630;4.896;2022-09-17T09:32:00;100076.66;;;13.42;74.24
46942;BME280;32676;52.630;4.896;2022-09-17T09:34:33;99996.97;;;13.20;71.20
46942;BME280;32676;52.630;4.896;2022-09-17T09:37:11;99949.09;;;13.12;71.08
46942;BME280;32676;52.630;4.896;2022-09-17T09:39:41;99879.69;;;12.95;72.08
46942;BME280;32676;52.630;4.896;2022-09-17T09:42:15;99847.78;;;12.84;72.84
46942;BME280;32676;52.630;4.896;2022-09-17T09:44:45;99869.31;;;12.92;73.51
46942;BME280;32676;52.630;4.896;2022-09-17T09:47:23;99918.72;;;13.04;73.80
46942;BME280;32676;52.630;4.896;2022-09-17T09:50:33;99995.09;;;13.22;74.51
46942;BME280;32676;52.630;4.896;2022-09-17T09:53:11;100006.75;;;13.18;75.08
46942;BME280;32676;52.630;4.896;2022-09-17T09:55:55;100042.97;;;13.32;75.11
46942;BME280;32676;52.630;4.896;2022-09-17T09:58:33;100082.94;;;13.40;75.22
46942;BME280;32676;52.630;4.896;2022-09-17T10:01:01;100143.97;;;13.50;73.22
46942;BME280;32676;52.630;4.896;2022-09-17T10:03:30;100241.00;;;13.78;72.25
46942;BME280;32676;52.630;4.896;2022-09-17T10:06:03;100320.06;;;13.97;70.31
46942;BME280;32676;52.630;4.896;2022-09-17T10:08:33;100356.72;;;14.03;68.57
46942;BME280;32676;52.630;4.896;2022-09-17T10:11:02;100375.81;;;14.08;66.44
46942;BME280;32676;52.630;4.896;2022-09-17T10:13:30;100330.81;;;13.94;64.84
46942;BME280;32676;52.630;4.896;2022-09-17T10:16:14;100319.22;;;13.96;63.90
46942;BME280;32676;52.630;4.896;2022-09-17T10:18:42;100272.75;;;13.76;63.71
46942;BME280;32676;52.630;4.896;2022-09-17T10:21:19;100268.09;;;13.81;63.81
46942;BME280;32676;52.630;4.896;2022-09-17T10:23:46;100314.97;;;13.94;64.35
46942;BME280;32676;52.630;4.896;2022-09-17T10:26:21;100332.34;;;13.98;64.37
46942;BME280;32676;52.630;4.896;2022-09-17T10:28:48;100307.97;;;13.93;65.19
46942;BME280;32676;52.630;4.896;2022-09-17T10:31:16;100270.81;;;13.80;65.10
46942;BME280;32676;52.630;4.896;2022-09-17T10:33:55;100285.47;;;13.86;65.01
46942;BME280;32676;52.630;4.896;2022-09-17T10:36:49;100341.03;;;14.00;64.84
46942;BME280;32676;52.630;4.896;2022-09-17T10:39:28;100341.03;;;14.00;64.88
46942;BME280;32676;52.630;4.896;2022-09-17T10:41:56;100348.34;;;13.95;64.59
46942;BME280;32676;52.630;4.896;2022-09-17T10:44:24;100410.59;;;14.16;63.68
46942;BME280;32676;52.630;4.896;2022-09-17T10:46:52;100474.91;;;14.33;64.30
46942;BME280;32676;52.630;4.896;2022-09-17T10:49:29;100543.75;;;14.47;64.15
46942;BME280;32676;52.630;4.896;2022-09-17T10:52:09;100588.38;;;14.53;64.25
46942;BME280;32676;52.630;4.896;2022-09-17T10:58:01;100752.81;;;14.96;64.03
46942;BME280;32676;52.630;4.896;2022-09-17T11:00:35;100811.16;;;15.11;61.62
46942;BME280;32676;52.630;4.896;2022-09-17T11:03:20;100844.31;;;15.18;60.92
46942;BME280;32676;52.630;4.896;2022-09-17T11:08:59;100793.91;;;15.04;64.60
46942;BME280;32676;52.630;4.896;2022-09-17T11:11:37;100640.44;;;14.70;67.65
46942;BME280;32676;52.630;4.896;2022-09-17T11:14:18;100460.16;;;14.29;67.91
46942;BME280;32676;52.630;4.896;2022-09-17T11:16:56;100402.06;;;14.11;67.58
46942;BME280;32676;52.630;4.896;2022-09-17T11:19:35;100396.78;;;14.11;68.89
46942;BME280;32676;52.630;4.896;2022-09-17T11:22:10;100370.16;;;13.98;69.91
46942;BME280;32676;52.630;4.896;2022-09-17T11:24:56;100415.88;;;14.16;70.56
46942;BME280;32676;52.630;4.896;2022-09-17T11:27:50;100462.81;;;14.29;71.42
46942;BME280;32676;52.630;4.896;2022-09-17T11:30:21;100475.41;;;14.24;70.84
46942;BME280;32676;52.630;4.896;2022-09-17T11:33:12;100529.16;;;14.40;69.84
46942;BME280;32676;52.630;4.896;2022-09-17T11:35:45;100577.78;;;14.53;68.80
46942;BME280;32676;52.630;4.896;2022-09-17T11:38:16;100603.56;;;14.50;67.80
46942;BME280;32676;52.630;4.896;2022-09-17T11:40:49;100656.22;;;14.72;64.69
46942;BME280;32676;52.630;4.896;2022-09-17T11:43:25;100664.94;;;14.74;63.68
46942;BME280;32676;52.630;4.896;2022-09-17T11:45:58;100665.06;;;14.71;62.65
46942;BME280;32676;52.630;4.896;2022-09-17T11:48:31;100656.22;;;14.72;61.83
46942;BME280;32676;52.630;4.896;2022-09-17T11:51:05;100672.84;;;14.74;62.47
46942;BME280;32676;52.630;4.896;2022-09-17T11:53:35;100732.88;;;14.89;62.86
46942;BME280;32676;52.630;4.896;2022-09-17T11:56:11;100800.22;;;15.01;63.29
46942;BME280;32676;52.630;4.896;2022-09-17T11:58:42;100837.50;;;15.14;63.44
46942;BME280;32676;52.630;4.896;2022-09-17T12:01:12;100862.78;;;15.20;62.84
46942;BME280;32676;52.630;4.896;2022-09-17T12:03:42;100912.69;;;15.27;61.99
46942;BME280;32676;52.630;4.896;2022-09-17T12:06:14;100959.59;;;15.43;61.31
46942;BME280;32676;52.630;4.896;2022-09-17T12:08:47;100957.22;;;15.36;60.60
46942;BME280;32676;52.630;4.896;2022-09-17T12:11:20;100996.19;;;15.52;59.70
46942;BME280;32676;52.630;4.896;2022-09-17T12:13:49;101017.06;;;15.58;59.58
46942;BME280;32676;52.630;4.896;2022-09-17T12:16:20;101045.88;;;15.64;59.04
46942;BME280;32676;52.630;4.896;2022-09-17T12:18:54;101041.81;;;15.57;58.78
46942;BME280;32676;52.630;4.896;2022-09-17T12:21:25;101081.63;;;15.74;57.15
46942;BME280;32676;52.630;4.896;2022-09-17T12:23:58;101099.25;;;15.76;56.28
46942;BME280;32676;52.630;4.896;2022-09-17T12:26:50;101084.38;;;15.71;56.35
46942;BME280;32676;52.630;4.896;2022-09-17T12:29:32;101108.75;;;15.80;57.50
46942;BME280;32676;52.630;4.896;2022-09-17T12:32:08;101138.63;;;15.83;58.12
46942;BME280;32676;52.630;4.896;2022-09-17T12:34:49;101216.19;;;16.04;59.07
46942;BME280;32676;52.630;4.896;2022-09-17T12:37:26;101198.59;;;16.03;59.53
46942;BME280;32676;52.630;4.896;2022-09-17T12:40:10;101096.78;;;15.71;59.51
46942;BME280;32676;52.630;4.896;2022-09-17T12:42:54;100980.44;;;15.49;59.57
46942;BME280;32676;52.630;4.896;2022-09-17T12:45:36;100825.50;;;15.07;60.28
46942;BME280;32676;52.630;4.896;2022-09-17T12:48:26;100741.59;;;14.91;61.80
46942;BME280;32676;52.630;4.896;2022-09-17T12:51:08;100701.47;;;14.83;63.37
46942;BME280;32676;52.630;4.896;2022-09-17T12:53:42;100693.69;;;14.80;64.27
46942;BME280;32676;52.630;4.896;2022-09-17T12:56:26;100738.03;;;14.92;64.65
46942;BME280;32676;52.630;4.896;2022-09-17T12:59:05;100823.63;;;15.09;65.17
46942;BME280;32676;52.630;4.896;2022-09-17T13:01:39;100926.56;;;15.32;64.82
46942;BME280;32676;52.630;4.896;2022-09-17T13:04:16;100992.78;;;15.50;63.97
46942;BME280;32676;52.630;4.896;2022-09-17T13:07:04;101037.94;;;15.64;63.67
46942;BME280;32676;52.630;4.896;2022-09-17T13:09:56;101004.91;;;15.54;61.66
46942;BME280;32676;52.630;4.896;2022-09-17T13:12:31;100896.81;;;15.27;59.97
46942;BME280;32676;52.630;4.896;2022-09-17T13:15:17;100753.75;;;14.95;60.79
46942;BME280;32676;52.630;4.896;2022-09-17T13:17:51;100567.41;;;14.50;60.81
46942;BME280;32676;52.630;4.896;2022-09-17T13:20:25;100450.69;;;14.25;61.29
46942;BME280;32676;52.630;4.896;2022-09-17T13:22:54;100403.78;;;14.12;61.80
46942;BME280;32676;52.630;4.896;2022-09-17T13:25:22;100378.00;;;14.00;63.12
46942;BME280;32676;52.630;4.896;2022-09-17T13:27:50;100401.22;;;14.11;63.83